Terminal Aerodrome Forecast
Issued by NWS Jackson, MS

Home | Current Version | Previous Version | Text Only | Print | Product List | Glossary On
Versions: 1 2 3 4 5 6 7 8 9 10 11 12 13 14 15 16 17 18
911
FTUS44 KJAN 231726
TAFMEI
TAF
KMEI 231726Z 2318/2418 32011KT P6SM SKC
     FM240000 32008KT P6SM BKN015
     FM240600 34003KT P6SM SKC
     FM241500 09002KT P6SM OVC250=

USA.gov is the U.S. government's official web portal to all federal, state and local government web resources and services.